• Join FlightAware (Why Join?)
  • Login
  • US Flag 
07:25PM EST


 

Airport Tracker/Info


-or-


 

Live Flight TrackerFlight Track Log ✈ AWE1840 ✈ 12-Oct-2013 ✈ KALB - KCLT

Flight Track Log - Related Links

Times and Time Zones

All times are in EDT time to prevent confusion due to time zone crossing. See the AWE1840 flight status page for this flight to view local times or setup timezone preferences in your user account.

Time Position Orientation Groundspeed Altitude Reporting Facility
EDT Latitude Longitude Course Direction KTS MPH feet Rate Location/Type
03:01PM 42.7297 -73.8081 174° South 156 180 1,100  Level Boston Center
03:01PM 42.7153 -73.8078 179° South 160 184 1,900 2,100 Climbing Boston Center
03:02PM 42.6589 -73.8067 179° South 233 268 3,700 2,340 Climbing Boston Center
03:03PM 42.4868 -74.0867 180° South  Level Estimated
03:03PM 42.6286 -73.8906 244° Southwest 283 326 6,400  Level Boston Center
03:04PM 42.3991 -74.1811 169° South  Level Estimated
03:04PM 42.6714 -73.9733 305° West 296 341 9,500  Level Boston Center
03:05PM 42.3115 -74.2753 168° South  Level Estimated
03:05PM 42.7222 -74.0653 307° West 302 348 12,300  Level Boston Center
03:06PM 42.2237 -74.3691 174° South  Level Estimated
03:06PM 42.8069 -74.1156 336° Northwest 303 349 14,500  Level Boston Center
03:07PM 42.8375 -74.0172 67° East 226 260 16,900 2,040 Climbing Boston Center
03:08PM 42.7469 -73.9442 149° Southeast 167 192 18,700 1,980 Climbing Boston Center
03:09PM 42.6347 -73.9047 166° South 289 333 20,900 1,980 Climbing Boston Center
03:10PM 42.5292 -73.8600 163° South 339 390 22,600 1,620 Climbing Boston Center
03:11PM 42.4108 -73.8208 166° South 389 448 24,100 1,560 Climbing Boston Center
03:12PM 42.2883 -73.7817 167° South 434 499 25,800 1,380 Climbing Boston Center
03:13PM 42.1636 -73.7453 168° South 453 521 27,000 1,380 Climbing Boston Center
03:14PM 42.0369 -73.7119 169° South 463 533 28,700 1,200 Climbing Boston Center
03:15PM 41.9111 -73.7764 201° Southwest 456 525 29,500 1,200 Climbing Boston Center
03:17PM 41.6250 -73.9403 203° Southwest 479 551 32,600 1,200 Climbing New York Center
03:18PM 41.5194 -74.0017 204° Southwest 479 551 33,400 600 Climbing New York Center
03:19PM 41.3967 -74.0678 202° Southwest 474 545 33,900 240 Climbing New York Center
03:20PM 41.2719 -74.1361 202° Southwest 474 545 33,900  Level New York Center
03:21PM 41.1386 -74.2067 202° Southwest 479 551 33,900  Level New York Center
03:22PM 41.0158 -74.2772 203° Southwest 479 551 33,900  Level New York Center
03:23PM 40.8950 -74.3425 202° Southwest 479 551 33,900  Level New York Center
03:24PM 40.7825 -74.4186 207° Southwest 474 545 33,900  Level New York Center
03:25PM 40.7011 -74.5486 230° Southwest 463 533 33,900  Level New York Center
03:26PM 40.6219 -74.6781 231° Southwest 448 516 33,900  Level New York Center
03:27PM 40.5386 -74.8017 228° Southwest 453 521 33,900  Level New York Center
03:28PM 40.4550 -74.9250 228° Southwest 458 527 33,900  Level New York Center
03:29PM 40.3675 -75.0478 227° Southwest 463 533 33,900  Level New York Center
03:30PM 40.2817 -75.1703 227° Southwest 463 533 33,900  Level New York Center
03:31PM 40.1956 -75.2925 227° Southwest 463 533 33,900  Level New York Center
03:32PM 40.1078 -75.4117 226° Southwest 458 527 33,900  Level New York Center
03:33PM 40.0217 -75.5333 227° Southwest 458 527 33,900  Level New York Center
03:34PM 39.9353 -75.6547 227° Southwest 458 527 33,900  Level New York Center
03:35PM 39.8528 -75.7789 229° Southwest 453 521 33,900  Level New York Center
03:36PM 39.7722 -75.9081 231° Southwest 458 527 33,900  Level New York Center
03:38PM 39.5997 -76.1758 230° Southwest 449 517 33,900  Level Washington Center
03:39PM 39.5219 -76.3044 232° Southwest 454 522 33,900  Level Washington Center
03:40PM 39.4356 -76.4325 229° Southwest 464 534 33,900  Level Washington Center
03:41PM 39.3472 -76.5683 230° Southwest 469 540 34,000  Climbing Washington Center
03:42PM 39.2647 -76.6986 231° Southwest 469 540 34,000  Level Washington Center
03:43PM 39.1886 -76.8208 231° Southwest 463 533 34,000  Level Washington Center
03:44PM 39.1039 -76.9450 229° Southwest 463 533 34,000  Level Washington Center
03:45PM 39.0189 -77.0664 228° Southwest 464 534 34,000  Level Washington Center
03:46PM 38.9239 -77.1686 220° Southwest 458 527 34,000  Level Washington Center
03:47PM 38.8267 -77.2758 221° Southwest 458 527 34,000  Level Washington Center
03:48PM 38.7311 -77.3800 220° Southwest 458 527 34,000  Level Washington Center
03:49PM 38.6339 -77.4839 220° Southwest 458 527 34,000  Level Washington Center
03:50PM 38.5553 -77.5697 221° Southwest 463 533 34,000  Level Washington Center
03:51PM 38.4511 -77.6861 221° Southwest 463 533 34,000  Level Washington Center
03:52PM 38.3533 -77.7892 220° Southwest 463 533 34,000  Level Washington Center
03:53PM 38.2556 -77.8922 220° Southwest 463 533 34,000  Level Washington Center
03:54PM 38.1617 -77.9975 221° Southwest 463 533 34,000  Level Washington Center
03:55PM 38.0636 -78.1000 219° Southwest 463 533 34,000  Level Washington Center
03:56PM 37.9781 -78.2078 225° Southwest 456 525 34,000  Level Washington Center
03:57PM 37.8872 -78.3414 229° Southwest 450 518 34,000  Level Washington Center
03:58PM 37.8033 -78.4592 228° Southwest 456 525 34,000  Level Washington Center
03:59PM 37.7211 -78.5794 229° Southwest 456 525 34,000  Level Washington Center
04:00PM 37.6367 -78.6969 228° Southwest 456 525 34,000  Level Washington Center
04:01PM 37.5631 -78.8011 228° Southwest 456 525 34,000  Level Washington Center
04:02PM 37.4783 -78.9206 228° Southwest 456 525 34,000  Level Washington Center
04:03PM 37.3939 -79.0372 228° Southwest 451 519 34,000  Level Washington Center
04:04PM 37.3089 -79.1561 228° Southwest 456 525 34,000 -60 Level Washington Center
04:05PM 37.2178 -79.2692 225° Southwest 456 525 33,900 -240 Descending Washington Center
04:06PM 37.1003 -79.3625 212° Southwest 456 525 33,600 -660 Descending Washington Center
04:07PM 36.9975 -79.4486 214° Southwest 461 531 32,600 -960 Descending Washington Center
04:08PM 36.8944 -79.5344 214° Southwest 461 531 31,700 -960 Descending Washington Center
04:09PM 36.7914 -79.6197 214° Southwest 455 524 30,700 -1,020 Descending Washington Center
04:10PM 36.6842 -79.7050 213° Southwest 455 524 29,800 -960 Descending Washington Center
04:11PM 36.5897 -79.7803 213° Southwest 434 499 28,900 -1,080 Descending Washington Center
04:12PM 36.4653 -79.8775 212° Southwest 389 448 27,500 -1,140 Descending Atlanta Center
04:13PM 36.3700 -79.9597 215° Southwest 404 465 26,500 -840 Descending Atlanta Center
04:14PM 36.2706 -80.0419 214° Southwest 423 487 25,900 -1,560 Descending Atlanta Center
04:15PM 36.1650 -80.1294 214° Southwest 423 487 23,400 -1,800 Descending Atlanta Center
04:16PM 36.0736 -80.2083 215° Southwest 423 487 22,300 -1,560 Descending Atlanta Center
04:17PM 35.9883 -80.2842 216° Southwest 406 467 20,300 -2,040 Descending Atlanta Center
04:18PM 35.9783 -80.2975 227° Southwest 384 442 20,000 -1,500 Descending Atlanta Center
04:18PM 35.9133 -80.3519 214° Southwest 389 448 18,800 -1,680 Descending Atlanta Center
04:19PM 35.8828 -80.3764 213° Southwest 360 414 18,100 -1,800 Descending Atlanta Center
04:19PM 35.8317 -80.4169 213° Southwest 369 425 17,000 -1,140 Descending Atlanta Center
04:20PM 35.8053 -80.4439 220° Southwest 345 397 17,000 -120 Level Atlanta Center
04:20PM 35.7442 -80.4925 213° Southwest 355 409 16,900 -720 Descending Atlanta Center
04:21PM 35.7258 -80.5086 216° Southwest 336 387 16,300 -1,020 Descending Atlanta Center
04:21PM 35.6708 -80.5519 213° Southwest 336 387 15,900 -1,020 Descending Atlanta Center
04:22PM 35.6464 -80.5733 215° Southwest 320 368 15,300 -1,860 Descending Atlanta Center
04:22PM 35.5975 -80.6139 214° Southwest 330 380 14,100 -1,920 Descending Atlanta Center
04:23PM 35.5711 -80.6381 217° Southwest 324 373 13,400 -1,140 Descending Atlanta Center
04:23PM 35.5219 -80.6756 212° Southwest 325 374 13,000 -420 Descending Atlanta Center
04:24PM 35.4997 -80.6969 218° Southwest 317 365 13,000 -240 Level Atlanta Center
04:24PM 35.4506 -80.7347 212° Southwest 325 374 12,800 -960 Descending Atlanta Center
04:25PM 35.4181 -80.7642 216° Southwest 308 354 12,000 -1,740 Descending Atlanta Center
04:25PM 35.3811 -80.7936 213° Southwest 325 374 11,100 -1,680 Descending Atlanta Center
04:26PM 35.3464 -80.8228 214° Southwest 304 350 10,300 -1,200 Descending Atlanta Center
04:26PM 35.3158 -80.8444 210° Southwest 320 368 9,900 -1,200 Descending Atlanta Center
04:27PM 35.2758 -80.8358 170° South 281 323 9,200 -900 Descending Atlanta Center
04:27PM 35.2383 -80.8372 182° South 281 323 9,000 -840 Descending Atlanta Center
04:28PM 35.2050 -80.8336 175° South 246 283 8,400 -1,260 Descending Atlanta Center
04:29PM 35.1358 -80.8261 175° South 237 273 7,200 -1,260 Descending Atlanta Center
04:30PM 35.0753 -80.8208 176° South 238 274 6,000 -1,080 Descending Atlanta Center
04:31PM 35.0106 -80.8208 180° South 236 272 5,200 -660 Descending Atlanta Center
04:32PM 34.9975 -80.8844 256° West 209 241 4,600 -600 Descending Atlanta Center
04:33PM 35.0422 -80.9183 328° Northwest 180 207 4,000 -780 Descending Atlanta Center
04:34PM 35.0925 -80.9267 352° North 180 207 3,100 -1,080 Descending Atlanta Center
04:35PM 35.1447 -80.9297 357° North 183 211 1,900 -1,020 Descending Atlanta Center
04:36PM 35.1803 -80.9361 352° North 145 167 1,200 -780 Descending Atlanta Center